Terminal Aerodrome Forecast
Issued by NWS

Home | Current Version | Previous Version | Text Only | Print | Product List | Glossary On
Versions: 1 2 3 4 5 6 7 8 9 10 11 12 13 14 15
000
FTAK31 PAJN 012300
TAFAGY
TAF
PAGY 012328Z 0200/0224 21012KT P6SM VCSH SCT080 BKN150
      TEMPO 0200/0203 21013G23KT -SHRA SCT015 BKN040 OVC080
     FM020300 21009KT P6SM BKN050 OVC100
     FM020900 04004KT P6SM VCSH BKN040 OVC100
     FM021500 03007KT P6SM VCSH BKN030 OVC080 PROB30 0215/0218 -RA
     FM022100 02010KT 6SM -RA BKN025 OVC050
      AMD LTD TO CLD VIS AND WIND=

USA.gov is the U.S. government's official web portal to all federal, state and local government web resources and services.